sensor_id;sensor_type;location;lat;lon;timestamp;P1;durP1;ratioP1;P2;durP2;ratioP2
22223;SDS011;11281;52.194;21.006;2023-07-08T00:02:04;6.05;;;3.70;;
22223;SDS011;11281;52.194;21.006;2023-07-08T00:06:18;5.50;;;3.80;;
22223;SDS011;11281;52.194;21.006;2023-07-08T00:10:25;7.20;;;3.60;;
22223;SDS011;11281;52.194;21.006;2023-07-08T00:14:28;5.00;;;3.70;;
22223;SDS011;11281;52.194;21.006;2023-07-08T00:18:29;7.78;;;4.45;;
22223;SDS011;11281;52.194;21.006;2023-07-08T00:22:31;5.32;;;3.40;;
22223;SDS011;11281;52.194;21.006;2023-07-08T00:26:35;4.28;;;3.75;;
22223;SDS011;11281;52.194;21.006;2023-07-08T00:30:37;5.18;;;3.92;;
22223;SDS011;11281;52.194;21.006;2023-07-08T00:34:39;7.05;;;4.20;;
22223;SDS011;11281;52.194;21.006;2023-07-08T00:38:41;5.50;;;3.60;;
22223;SDS011;11281;52.194;21.006;2023-07-08T00:42:45;7.43;;;4.10;;
22223;SDS011;11281;52.194;21.006;2023-07-08T00:46:52;5.22;;;3.63;;
22223;SDS011;11281;52.194;21.006;2023-07-08T00:51:07;5.32;;;4.25;;
22223;SDS011;11281;52.194;21.006;2023-07-08T00:55:11;7.75;;;4.18;;
22223;SDS011;11281;52.194;21.006;2023-07-08T00:59:25;10.95;;;4.60;;
22223;SDS011;11281;52.194;21.006;2023-07-08T01:03:33;5.10;;;4.25;;
22223;SDS011;11281;52.194;21.006;2023-07-08T01:07:44;6.10;;;3.67;;
22223;SDS011;11281;52.194;21.006;2023-07-08T01:11:58;4.65;;;3.92;;
22223;SDS011;11281;52.194;21.006;2023-07-08T01:16:03;4.55;;;3.90;;
22223;SDS011;11281;52.194;21.006;2023-07-08T01:20:06;7.32;;;4.28;;
22223;SDS011;11281;52.194;21.006;2023-07-08T01:24:13;6.05;;;4.85;;
22223;SDS011;11281;52.194;21.006;2023-07-08T01:28:15;5.78;;;4.03;;
22223;SDS011;11281;52.194;21.006;2023-07-08T01:32:17;4.25;;;3.58;;
22223;SDS011;11281;52.194;21.006;2023-07-08T01:36:19;6.35;;;4.18;;
22223;SDS011;11281;52.194;21.006;2023-07-08T01:40:26;6.78;;;4.20;;
22223;SDS011;11281;52.194;21.006;2023-07-08T01:44:35;7.88;;;3.92;;
22223;SDS011;11281;52.194;21.006;2023-07-08T01:48:38;4.63;;;3.70;;
22223;SDS011;11281;52.194;21.006;2023-07-08T01:52:42;4.78;;;4.15;;
22223;SDS011;11281;52.194;21.006;2023-07-08T01:56:44;6.07;;;4.07;;
22223;SDS011;11281;52.194;21.006;2023-07-08T02:00:46;6.22;;;4.20;;
22223;SDS011;11281;52.194;21.006;2023-07-08T02:04:49;5.55;;;4.38;;
22223;SDS011;11281;52.194;21.006;2023-07-08T02:08:51;6.63;;;4.22;;
22223;SDS011;11281;52.194;21.006;2023-07-08T02:12:52;6.47;;;4.25;;
22223;SDS011;11281;52.194;21.006;2023-07-08T02:16:54;6.18;;;4.25;;
22223;SDS011;11281;52.194;21.006;2023-07-08T02:20:55;5.63;;;4.18;;
22223;SDS011;11281;52.194;21.006;2023-07-08T02:24:57;9.57;;;4.00;;
22223;SDS011;11281;52.194;21.006;2023-07-08T02:28:59;6.85;;;4.43;;
22223;SDS011;11281;52.194;21.006;2023-07-08T02:33:01;7.60;;;3.83;;
22223;SDS011;11281;52.194;21.006;2023-07-08T02:37:02;4.93;;;4.38;;
22223;SDS011;11281;52.194;21.006;2023-07-08T02:41:04;5.28;;;4.22;;
22223;SDS011;11281;52.194;21.006;2023-07-08T02:45:06;5.85;;;4.25;;
22223;SDS011;11281;52.194;21.006;2023-07-08T02:49:08;6.07;;;4.07;;
22223;SDS011;11281;52.194;21.006;2023-07-08T02:53:10;6.20;;;4.00;;
22223;SDS011;11281;52.194;21.006;2023-07-08T02:57:12;5.30;;;3.80;;
22223;SDS011;11281;52.194;21.006;2023-07-08T03:01:13;10.00;;;5.07;;
22223;SDS011;11281;52.194;21.006;2023-07-08T03:05:18;5.97;;;4.20;;
22223;SDS011;11281;52.194;21.006;2023-07-08T03:09:20;7.63;;;4.80;;
22223;SDS011;11281;52.194;21.006;2023-07-08T03:13:22;9.27;;;4.55;;
22223;SDS011;11281;52.194;21.006;2023-07-08T03:17:24;6.85;;;4.70;;
22223;SDS011;11281;52.194;21.006;2023-07-08T03:21:26;6.88;;;4.68;;
22223;SDS011;11281;52.194;21.006;2023-07-08T03:25:27;4.68;;;4.20;;
22223;SDS011;11281;52.194;21.006;2023-07-08T03:29:29;7.22;;;4.32;;
22223;SDS011;11281;52.194;21.006;2023-07-08T03:33:30;8.45;;;4.43;;
22223;SDS011;11281;52.194;21.006;2023-07-08T03:37:32;4.78;;;3.65;;
22223;SDS011;11281;52.194;21.006;2023-07-08T03:41:34;6.07;;;4.13;;
22223;SDS011;11281;52.194;21.006;2023-07-08T03:45:36;6.80;;;4.35;;
22223;SDS011;11281;52.194;21.006;2023-07-08T03:49:38;5.00;;;4.20;;
22223;SDS011;11281;52.194;21.006;2023-07-08T03:53:40;5.97;;;4.22;;
22223;SDS011;11281;52.194;21.006;2023-07-08T03:57:42;6.25;;;4.05;;
22223;SDS011;11281;52.194;21.006;2023-07-08T04:01:44;6.13;;;3.88;;
22223;SDS011;11281;52.194;21.006;2023-07-08T04:05:46;5.68;;;4.28;;
22223;SDS011;11281;52.194;21.006;2023-07-08T04:09:48;5.28;;;3.90;;
22223;SDS011;11281;52.194;21.006;2023-07-08T04:13:50;6.18;;;4.60;;
22223;SDS011;11281;52.194;21.006;2023-07-08T04:17:52;8.23;;;4.45;;
22223;SDS011;11281;52.194;21.006;2023-07-08T04:21:56;6.18;;;4.70;;
22223;SDS011;11281;52.194;21.006;2023-07-08T04:25:58;6.80;;;3.85;;
22223;SDS011;11281;52.194;21.006;2023-07-08T04:30:00;5.35;;;4.30;;
22223;SDS011;11281;52.194;21.006;2023-07-08T04:34:01;5.70;;;4.32;;
22223;SDS011;11281;52.194;21.006;2023-07-08T04:38:07;5.05;;;3.55;;
22223;SDS011;11281;52.194;21.006;2023-07-08T04:42:23;5.68;;;3.80;;
22223;SDS011;11281;52.194;21.006;2023-07-08T04:46:30;7.13;;;4.63;;
22223;SDS011;11281;52.194;21.006;2023-07-08T04:50:35;4.88;;;3.92;;
22223;SDS011;11281;52.194;21.006;2023-07-08T04:54:37;5.38;;;4.22;;
22223;SDS011;11281;52.194;21.006;2023-07-08T04:58:39;9.20;;;3.90;;
22223;SDS011;11281;52.194;21.006;2023-07-08T05:02:41;5.05;;;4.07;;
22223;SDS011;11281;52.194;21.006;2023-07-08T05:06:43;5.75;;;4.13;;
22223;SDS011;11281;52.194;21.006;2023-07-08T05:10:44;6.43;;;4.35;;
22223;SDS011;11281;52.194;21.006;2023-07-08T05:14:46;5.68;;;4.13;;
22223;SDS011;11281;52.194;21.006;2023-07-08T05:18:47;6.05;;;3.80;;
22223;SDS011;11281;52.194;21.006;2023-07-08T05:22:49;5.35;;;3.05;;
22223;SDS011;11281;52.194;21.006;2023-07-08T05:26:51;6.60;;;3.65;;
22223;SDS011;11281;52.194;21.006;2023-07-08T05:30:53;4.32;;;3.33;;
22223;SDS011;11281;52.194;21.006;2023-07-08T05:34:56;5.70;;;3.70;;
22223;SDS011;11281;52.194;21.006;2023-07-08T05:38:58;8.27;;;4.03;;
22223;SDS011;11281;52.194;21.006;2023-07-08T05:43:00;6.22;;;4.13;;
22223;SDS011;11281;52.194;21.006;2023-07-08T05:47:02;5.25;;;3.72;;
22223;SDS011;11281;52.194;21.006;2023-07-08T05:51:04;6.55;;;4.00;;
22223;SDS011;11281;52.194;21.006;2023-07-08T05:55:06;6.78;;;3.80;;
22223;SDS011;11281;52.194;21.006;2023-07-08T05:59:09;4.78;;;3.67;;
22223;SDS011;11281;52.194;21.006;2023-07-08T06:03:12;4.22;;;3.63;;
22223;SDS011;11281;52.194;21.006;2023-07-08T06:07:13;6.72;;;3.55;;
22223;SDS011;11281;52.194;21.006;2023-07-08T06:11:15;4.13;;;2.92;;
22223;SDS011;11281;52.194;21.006;2023-07-08T06:15:17;5.25;;;2.95;;
22223;SDS011;11281;52.194;21.006;2023-07-08T06:19:19;3.28;;;2.80;;
22223;SDS011;11281;52.194;21.006;2023-07-08T06:23:20;4.35;;;2.92;;
22223;SDS011;11281;52.194;21.006;2023-07-08T06:27:22;3.97;;;2.97;;
22223;SDS011;11281;52.194;21.006;2023-07-08T06:31:25;4.20;;;2.83;;
22223;SDS011;11281;52.194;21.006;2023-07-08T06:35:27;4.47;;;2.50;;
22223;SDS011;11281;52.194;21.006;2023-07-08T06:39:29;3.03;;;2.72;;
22223;SDS011;11281;52.194;21.006;2023-07-08T06:43:31;3.55;;;2.50;;
22223;SDS011;11281;52.194;21.006;2023-07-08T06:47:32;3.83;;;2.70;;
22223;SDS011;11281;52.194;21.006;2023-07-08T06:51:34;3.10;;;2.30;;
22223;SDS011;11281;52.194;21.006;2023-07-08T06:55:37;4.57;;;2.00;;
22223;SDS011;11281;52.194;21.006;2023-07-08T06:59:39;2.72;;;2.30;;
22223;SDS011;11281;52.194;21.006;2023-07-08T07:03:42;4.18;;;2.00;;
22223;SDS011;11281;52.194;21.006;2023-07-08T07:07:44;9.73;;;2.00;;
22223;SDS011;11281;52.194;21.006;2023-07-08T07:11:46;6.35;;;1.90;;
22223;SDS011;11281;52.194;21.006;2023-07-08T07:15:48;4.45;;;1.95;;
22223;SDS011;11281;52.194;21.006;2023-07-08T07:19:50;2.85;;;1.88;;
22223;SDS011;11281;52.194;21.006;2023-07-08T07:23:51;1.80;;;1.63;;
22223;SDS011;11281;52.194;21.006;2023-07-08T07:27:53;2.22;;;1.48;;
22223;SDS011;11281;52.194;21.006;2023-07-08T07:31:55;2.33;;;1.60;;
22223;SDS011;11281;52.194;21.006;2023-07-08T07:35:57;2.03;;;1.48;;
22223;SDS011;11281;52.194;21.006;2023-07-08T07:39:59;2.30;;;1.42;;
22223;SDS011;11281;52.194;21.006;2023-07-08T07:44:01;2.58;;;1.63;;
22223;SDS011;11281;52.194;21.006;2023-07-08T07:48:02;3.35;;;1.88;;
22223;SDS011;11281;52.194;21.006;2023-07-08T07:52:04;3.10;;;1.75;;
22223;SDS011;11281;52.194;21.006;2023-07-08T07:56:07;1.60;;;1.40;;
22223;SDS011;11281;52.194;21.006;2023-07-08T08:00:09;3.33;;;1.50;;
22223;SDS011;11281;52.194;21.006;2023-07-08T08:04:12;1.90;;;1.40;;
22223;SDS011;11281;52.194;21.006;2023-07-08T08:08:13;1.38;;;1.27;;
22223;SDS011;11281;52.194;21.006;2023-07-08T08:12:15;1.60;;;1.27;;
22223;SDS011;11281;52.194;21.006;2023-07-08T08:16:17;1.85;;;1.40;;
22223;SDS011;11281;52.194;21.006;2023-07-08T08:20:19;3.03;;;1.33;;
22223;SDS011;11281;52.194;21.006;2023-07-08T08:24:22;1.65;;;1.40;;
22223;SDS011;11281;52.194;21.006;2023-07-08T08:28:24;2.15;;;1.48;;
22223;SDS011;11281;52.194;21.006;2023-07-08T08:32:26;2.13;;;1.52;;
22223;SDS011;11281;52.194;21.006;2023-07-08T08:36:27;1.20;;;1.10;;
22223;SDS011;11281;52.194;21.006;2023-07-08T08:40:29;1.52;;;1.20;;
22223;SDS011;11281;52.194;21.006;2023-07-08T08:44:33;4.00;;;1.58;;
22223;SDS011;11281;52.194;21.006;2023-07-08T08:48:40;1.88;;;1.50;;
22223;SDS011;11281;52.194;21.006;2023-07-08T08:53:22;4.22;;;1.67;;
22223;SDS011;11281;52.194;21.006;2023-07-08T09:05:46;2.03;;;1.50;;
22223;SDS011;11281;52.194;21.006;2023-07-08T09:09:54;1.90;;;1.58;;
22223;SDS011;11281;52.194;21.006;2023-07-08T09:14:04;5.43;;;1.60;;
22223;SDS011;11281;52.194;21.006;2023-07-08T09:18:18;2.22;;;1.50;;
22223;SDS011;11281;52.194;21.006;2023-07-08T09:22:45;1.73;;;1.40;;
22223;SDS011;11281;52.194;21.006;2023-07-08T09:27:02;1.77;;;1.33;;
22223;SDS011;11281;52.194;21.006;2023-07-08T09:31:05;2.13;;;1.45;;
22223;SDS011;11281;52.194;21.006;2023-07-08T09:35:09;1.50;;;1.40;;
22223;SDS011;11281;52.194;21.006;2023-07-08T09:39:26;1.60;;;1.23;;
22223;SDS011;11281;52.194;21.006;2023-07-08T09:43:34;3.42;;;1.65;;
22223;SDS011;11281;52.194;21.006;2023-07-08T09:51:41;1.45;;;1.23;;
22223;SDS011;11281;52.194;21.006;2023-07-08T09:55:44;4.35;;;1.52;;
22223;SDS011;11281;52.194;21.006;2023-07-08T09:59:47;3.03;;;1.70;;
22223;SDS011;11281;52.194;21.006;2023-07-08T10:03:57;2.75;;;1.95;;
22223;SDS011;11281;52.194;21.006;2023-07-08T10:08:02;1.80;;;1.40;;
22223;SDS011;11281;52.194;21.006;2023-07-08T10:12:20;1.20;;;1.10;;
22223;SDS011;11281;52.194;21.006;2023-07-08T10:16:27;2.95;;;1.50;;
22223;SDS011;11281;52.194;21.006;2023-07-08T10:20:36;2.20;;;1.42;;
22223;SDS011;11281;52.194;21.006;2023-07-08T10:25:13;1.60;;;1.50;;
22223;SDS011;11281;52.194;21.006;2023-07-08T10:42:21;1.65;;;1.40;;
22223;SDS011;11281;52.194;21.006;2023-07-08T10:46:55;2.15;;;1.60;;
22223;SDS011;11281;52.194;21.006;2023-07-08T11:09:15;4.03;;;1.67;;
22223;SDS011;11281;52.194;21.006;2023-07-08T11:13:50;2.15;;;1.52;;
22223;SDS011;11281;52.194;21.006;2023-07-08T11:18:25;2.63;;;1.67;;
22223;SDS011;11281;52.194;21.006;2023-07-08T11:22:51;3.30;;;1.45;;
22223;SDS011;11281;52.194;21.006;2023-07-08T11:27:05;1.80;;;1.70;;
22223;SDS011;11281;52.194;21.006;2023-07-08T11:31:25;2.25;;;1.42;;
22223;SDS011;11281;52.194;21.006;2023-07-08T11:35:36;2.30;;;1.50;;
22223;SDS011;11281;52.194;21.006;2023-07-08T11:39:46;2.42;;;1.40;;
22223;SDS011;11281;52.194;21.006;2023-07-08T11:43:59;3.50;;;1.88;;
22223;SDS011;11281;52.194;21.006;2023-07-08T11:52:17;3.50;;;2.03;;
22223;SDS011;11281;52.194;21.006;2023-07-08T11:56:21;1.60;;;1.50;;
22223;SDS011;11281;52.194;21.006;2023-07-08T12:00:25;1.73;;;1.60;;
22223;SDS011;11281;52.194;21.006;2023-07-08T12:04:55;1.73;;;1.60;;
22223;SDS011;11281;52.194;21.006;2023-07-08T12:08:59;3.03;;;1.92;;
22223;SDS011;11281;52.194;21.006;2023-07-08T12:13:27;1.77;;;1.48;;
22223;SDS011;11281;52.194;21.006;2023-07-08T12:17:28;2.40;;;1.60;;
22223;SDS011;11281;52.194;21.006;2023-07-08T12:21:34;3.60;;;1.70;;
22223;SDS011;11281;52.194;21.006;2023-07-08T12:25:37;2.40;;;2.05;;
22223;SDS011;11281;52.194;21.006;2023-07-08T12:29:39;2.60;;;1.75;;
22223;SDS011;11281;52.194;21.006;2023-07-08T12:33:41;1.88;;;1.70;;
22223;SDS011;11281;52.194;21.006;2023-07-08T12:37:45;3.35;;;1.63;;
22223;SDS011;11281;52.194;21.006;2023-07-08T12:41:47;3.22;;;1.83;;
22223;SDS011;11281;52.194;21.006;2023-07-08T12:45:49;12.05;;;1.80;;
22223;SDS011;11281;52.194;21.006;2023-07-08T12:49:51;2.72;;;1.63;;
22223;SDS011;11281;52.194;21.006;2023-07-08T12:53:55;1.92;;;1.63;;
22223;SDS011;11281;52.194;21.006;2023-07-08T12:57:57;2.40;;;1.70;;
22223;SDS011;11281;52.194;21.006;2023-07-08T13:02:00;2.20;;;1.70;;
22223;SDS011;11281;52.194;21.006;2023-07-08T13:06:02;3.05;;;1.85;;
22223;SDS011;11281;52.194;21.006;2023-07-08T13:10:04;1.77;;;1.60;;
22223;SDS011;11281;52.194;21.006;2023-07-08T13:14:09;2.20;;;1.70;;
22223;SDS011;11281;52.194;21.006;2023-07-08T13:22:35;3.47;;;1.77;;
22223;SDS011;11281;52.194;21.006;2023-07-08T13:26:37;2.03;;;1.50;;
22223;SDS011;11281;52.194;21.006;2023-07-08T13:30:39;1.75;;;1.50;;
22223;SDS011;11281;52.194;21.006;2023-07-08T13:34:41;2.25;;;1.80;;
22223;SDS011;11281;52.194;21.006;2023-07-08T13:38:42;2.97;;;1.80;;
22223;SDS011;11281;52.194;21.006;2023-07-08T13:42:51;1.98;;;1.65;;
22223;SDS011;11281;52.194;21.006;2023-07-08T13:46:54;1.52;;;1.42;;
22223;SDS011;11281;52.194;21.006;2023-07-08T13:55:25;2.58;;;1.50;;
22223;SDS011;11281;52.194;21.006;2023-07-08T13:59:29;3.05;;;1.80;;
22223;SDS011;11281;52.194;21.006;2023-07-08T14:03:31;1.67;;;1.40;;
22223;SDS011;11281;52.194;21.006;2023-07-08T14:07:33;3.78;;;1.52;;
22223;SDS011;11281;52.194;21.006;2023-07-08T14:11:35;2.15;;;1.67;;
22223;SDS011;11281;52.194;21.006;2023-07-08T14:15:39;3.13;;;1.73;;
22223;SDS011;11281;52.194;21.006;2023-07-08T14:19:42;4.15;;;1.67;;
22223;SDS011;11281;52.194;21.006;2023-07-08T14:23:44;3.05;;;1.58;;
22223;SDS011;11281;52.194;21.006;2023-07-08T14:27:46;1.30;;;1.20;;
22223;SDS011;11281;52.194;21.006;2023-07-08T14:32:03;2.50;;;1.75;;
22223;SDS011;11281;52.194;21.006;2023-07-08T14:44:46;2.30;;;1.63;;
22223;SDS011;11281;52.194;21.006;2023-07-08T14:48:50;3.30;;;1.63;;
22223;SDS011;11281;52.194;21.006;2023-07-08T14:52:52;2.63;;;1.60;;
22223;SDS011;11281;52.194;21.006;2023-07-08T14:56:54;3.35;;;2.10;;
22223;SDS011;11281;52.194;21.006;2023-07-08T15:00:58;4.05;;;1.92;;
22223;SDS011;11281;52.194;21.006;2023-07-08T15:05:04;2.13;;;1.92;;
22223;SDS011;11281;52.194;21.006;2023-07-08T15:09:14;4.38;;;3.47;;
22223;SDS011;11281;52.194;21.006;2023-07-08T15:13:16;12.07;;;3.97;;
22223;SDS011;11281;52.194;21.006;2023-07-08T15:21:25;9.80;;;2.90;;
22223;SDS011;11281;52.194;21.006;2023-07-08T15:25:27;2.20;;;1.80;;
22223;SDS011;11281;52.194;21.006;2023-07-08T15:29:29;2.60;;;1.95;;
22223;SDS011;11281;52.194;21.006;2023-07-08T15:33:31;4.85;;;1.90;;
22223;SDS011;11281;52.194;21.006;2023-07-08T15:37:33;3.42;;;1.98;;
22223;SDS011;11281;52.194;21.006;2023-07-08T15:41:35;4.93;;;1.70;;
22223;SDS011;11281;52.194;21.006;2023-07-08T15:45:40;4.53;;;2.05;;
22223;SDS011;11281;52.194;21.006;2023-07-08T15:49:44;4.05;;;2.38;;
22223;SDS011;11281;52.194;21.006;2023-07-08T15:53:45;3.83;;;2.45;;
22223;SDS011;11281;52.194;21.006;2023-07-08T15:57:50;4.93;;;2.20;;
22223;SDS011;11281;52.194;21.006;2023-07-08T16:01:57;2.53;;;1.67;;
22223;SDS011;11281;52.194;21.006;2023-07-08T16:06:07;3.80;;;1.83;;
22223;SDS011;11281;52.194;21.006;2023-07-08T16:10:10;1.77;;;1.20;;
22223;SDS011;11281;52.194;21.006;2023-07-08T16:14:12;2.97;;;1.75;;
22223;SDS011;11281;52.194;21.006;2023-07-08T16:18:15;2.78;;;1.80;;
22223;SDS011;11281;52.194;21.006;2023-07-08T16:22:17;3.05;;;2.08;;
22223;SDS011;11281;52.194;21.006;2023-07-08T16:26:19;3.58;;;1.75;;
22223;SDS011;11281;52.194;21.006;2023-07-08T16:30:20;1.90;;;1.77;;
22223;SDS011;11281;52.194;21.006;2023-07-08T16:34:23;2.28;;;1.80;;
22223;SDS011;11281;52.194;21.006;2023-07-08T16:38:24;2.22;;;2.03;;
22223;SDS011;11281;52.194;21.006;2023-07-08T16:42:26;2.08;;;1.88;;
22223;SDS011;11281;52.194;21.006;2023-07-08T16:46:28;3.22;;;1.70;;
22223;SDS011;11281;52.194;21.006;2023-07-08T16:50:30;3.15;;;2.25;;
22223;SDS011;11281;52.194;21.006;2023-07-08T16:54:40;3.15;;;1.70;;
22223;SDS011;11281;52.194;21.006;2023-07-08T16:58:42;2.65;;;2.15;;
22223;SDS011;11281;52.194;21.006;2023-07-08T17:02:44;2.50;;;2.10;;
22223;SDS011;11281;52.194;21.006;2023-07-08T17:06:48;3.55;;;2.38;;
22223;SDS011;11281;52.194;21.006;2023-07-08T17:10:50;1.95;;;1.75;;
22223;SDS011;11281;52.194;21.006;2023-07-08T17:14:51;2.22;;;2.03;;
22223;SDS011;11281;52.194;21.006;2023-07-08T17:18:53;2.42;;;2.05;;
22223;SDS011;11281;52.194;21.006;2023-07-08T17:22:56;2.08;;;1.88;;
22223;SDS011;11281;52.194;21.006;2023-07-08T17:26:58;3.50;;;1.95;;
22223;SDS011;11281;52.194;21.006;2023-07-08T17:31:00;2.92;;;1.88;;
22223;SDS011;11281;52.194;21.006;2023-07-08T17:35:02;2.33;;;1.60;;
22223;SDS011;11281;52.194;21.006;2023-07-08T17:39:05;4.35;;;1.85;;
22223;SDS011;11281;52.194;21.006;2023-07-08T17:43:09;2.88;;;2.10;;
22223;SDS011;11281;52.194;21.006;2023-07-08T17:47:11;2.53;;;2.13;;
22223;SDS011;11281;52.194;21.006;2023-07-08T17:51:19;1.83;;;1.70;;
22223;SDS011;11281;52.194;21.006;2023-07-08T17:55:26;3.22;;;2.60;;
22223;SDS011;11281;52.194;21.006;2023-07-08T17:59:27;4.25;;;2.20;;
22223;SDS011;11281;52.194;21.006;2023-07-08T18:03:30;2.75;;;2.10;;
22223;SDS011;11281;52.194;21.006;2023-07-08T18:07:32;5.75;;;2.33;;
22223;SDS011;11281;52.194;21.006;2023-07-08T18:11:34;3.85;;;2.67;;
22223;SDS011;11281;52.194;21.006;2023-07-08T18:15:43;3.85;;;2.30;;
22223;SDS011;11281;52.194;21.006;2023-07-08T18:19:45;4.40;;;2.47;;
22223;SDS011;11281;52.194;21.006;2023-07-08T18:23:48;4.43;;;2.47;;
22223;SDS011;11281;52.194;21.006;2023-07-08T18:27:53;5.05;;;2.58;;
22223;SDS011;11281;52.194;21.006;2023-07-08T18:31:55;3.55;;;2.75;;
22223;SDS011;11281;52.194;21.006;2023-07-08T18:35:57;4.40;;;2.33;;
22223;SDS011;11281;52.194;21.006;2023-07-08T18:39:59;3.17;;;2.50;;
22223;SDS011;11281;52.194;21.006;2023-07-08T18:44:00;3.58;;;2.67;;
22223;SDS011;11281;52.194;21.006;2023-07-08T18:48:14;4.55;;;3.20;;
22223;SDS011;11281;52.194;21.006;2023-07-08T18:52:20;5.30;;;2.75;;
22223;SDS011;11281;52.194;21.006;2023-07-08T18:56:22;4.07;;;3.00;;
22223;SDS011;11281;52.194;21.006;2023-07-08T19:00:24;5.85;;;2.75;;
22223;SDS011;11281;52.194;21.006;2023-07-08T19:04:26;5.65;;;3.03;;
22223;SDS011;11281;52.194;21.006;2023-07-08T19:08:30;5.47;;;3.00;;
22223;SDS011;11281;52.194;21.006;2023-07-08T19:12:33;7.00;;;3.22;;
22223;SDS011;11281;52.194;21.006;2023-07-08T19:16:36;6.70;;;3.00;;
22223;SDS011;11281;52.194;21.006;2023-07-08T19:20:38;5.68;;;3.28;;
22223;SDS011;11281;52.194;21.006;2023-07-08T19:24:43;4.72;;;3.10;;
22223;SDS011;11281;52.194;21.006;2023-07-08T19:28:45;4.10;;;3.65;;
22223;SDS011;11281;52.194;21.006;2023-07-08T19:32:50;4.75;;;3.47;;
22223;SDS011;11281;52.194;21.006;2023-07-08T19:36:55;5.10;;;3.63;;
22223;SDS011;11281;52.194;21.006;2023-07-08T19:40:58;5.45;;;3.65;;
22223;SDS011;11281;52.194;21.006;2023-07-08T19:45:00;9.07;;;4.63;;
22223;SDS011;11281;52.194;21.006;2023-07-08T19:49:01;8.65;;;4.82;;
22223;SDS011;11281;52.194;21.006;2023-07-08T19:53:04;6.25;;;3.85;;
22223;SDS011;11281;52.194;21.006;2023-07-08T19:57:09;9.05;;;5.15;;
22223;SDS011;11281;52.194;21.006;2023-07-08T20:01:12;7.50;;;4.30;;
22223;SDS011;11281;52.194;21.006;2023-07-08T20:05:14;7.78;;;4.82;;
22223;SDS011;11281;52.194;21.006;2023-07-08T20:09:16;12.20;;;5.40;;
22223;SDS011;11281;52.194;21.006;2023-07-08T20:13:19;8.10;;;5.07;;
22223;SDS011;11281;52.194;21.006;2023-07-08T20:17:22;10.60;;;5.88;;
22223;SDS011;11281;52.194;21.006;2023-07-08T20:21:24;10.13;;;6.15;;
22223;SDS011;11281;52.194;21.006;2023-07-08T20:25:26;9.95;;;5.50;;
22223;SDS011;11281;52.194;21.006;2023-07-08T20:29:28;12.20;;;6.05;;
22223;SDS011;11281;52.194;21.006;2023-07-08T20:33:30;8.95;;;5.53;;
22223;SDS011;11281;52.194;21.006;2023-07-08T20:37:32;9.63;;;5.32;;
22223;SDS011;11281;52.194;21.006;2023-07-08T20:41:33;9.15;;;4.55;;
22223;SDS011;11281;52.194;21.006;2023-07-08T20:45:35;6.38;;;4.68;;
22223;SDS011;11281;52.194;21.006;2023-07-08T20:49:36;7.95;;;4.95;;
22223;SDS011;11281;52.194;21.006;2023-07-08T20:53:38;5.15;;;4.13;;
22223;SDS011;11281;52.194;21.006;2023-07-08T20:57:41;4.45;;;3.53;;
22223;SDS011;11281;52.194;21.006;2023-07-08T21:01:48;5.38;;;3.92;;
22223;SDS011;11281;52.194;21.006;2023-07-08T21:05:53;7.78;;;3.45;;
22223;SDS011;11281;52.194;21.006;2023-07-08T21:09:56;4.88;;;3.22;;
22223;SDS011;11281;52.194;21.006;2023-07-08T21:13:58;6.10;;;3.80;;
22223;SDS011;11281;52.194;21.006;2023-07-08T21:18:01;6.78;;;3.95;;
22223;SDS011;11281;52.194;21.006;2023-07-08T21:22:03;4.40;;;3.40;;
22223;SDS011;11281;52.194;21.006;2023-07-08T21:30:33;6.03;;;3.70;;
22223;SDS011;11281;52.194;21.006;2023-07-08T21:34:34;5.13;;;3.03;;
22223;SDS011;11281;52.194;21.006;2023-07-08T21:38:36;6.25;;;3.90;;
22223;SDS011;11281;52.194;21.006;2023-07-08T21:42:38;4.22;;;3.53;;
22223;SDS011;11281;52.194;21.006;2023-07-08T21:46:40;6.13;;;4.10;;
22223;SDS011;11281;52.194;21.006;2023-07-08T21:50:44;6.00;;;3.70;;
22223;SDS011;11281;52.194;21.006;2023-07-08T21:54:48;5.32;;;3.72;;
22223;SDS011;11281;52.194;21.006;2023-07-08T21:58:53;5.53;;;3.83;;
22223;SDS011;11281;52.194;21.006;2023-07-08T22:02:56;5.45;;;3.42;;
22223;SDS011;11281;52.194;21.006;2023-07-08T22:07:01;6.72;;;3.65;;
22223;SDS011;11281;52.194;21.006;2023-07-08T22:11:27;5.30;;;3.78;;
22223;SDS011;11281;52.194;21.006;2023-07-08T22:15:32;6.55;;;3.58;;
22223;SDS011;11281;52.194;21.006;2023-07-08T22:19:34;4.78;;;3.83;;
22223;SDS011;11281;52.194;21.006;2023-07-08T22:23:36;5.72;;;3.83;;
22223;SDS011;11281;52.194;21.006;2023-07-08T22:27:38;4.10;;;3.47;;
22223;SDS011;11281;52.194;21.006;2023-07-08T22:31:40;7.75;;;4.03;;
22223;SDS011;11281;52.194;21.006;2023-07-08T22:35:44;6.93;;;3.35;;
22223;SDS011;11281;52.194;21.006;2023-07-08T22:39:46;4.38;;;2.97;;
22223;SDS011;11281;52.194;21.006;2023-07-08T22:43:48;3.97;;;3.55;;
22223;SDS011;11281;52.194;21.006;2023-07-08T22:47:49;5.05;;;3.70;;
22223;SDS011;11281;52.194;21.006;2023-07-08T22:51:54;12.02;;;4.00;;
22223;SDS011;11281;52.194;21.006;2023-07-08T22:55:58;5.65;;;3.83;;
22223;SDS011;11281;52.194;21.006;2023-07-08T22:59:59;5.22;;;3.90;;
22223;SDS011;11281;52.194;21.006;2023-07-08T23:04:01;4.70;;;4.20;;
22223;SDS011;11281;52.194;21.006;2023-07-08T23:08:03;4.43;;;3.70;;
22223;SDS011;11281;52.194;21.006;2023-07-08T23:12:06;4.90;;;3.65;;
22223;SDS011;11281;52.194;21.006;2023-07-08T23:20:18;4.47;;;3.75;;
22223;SDS011;11281;52.194;21.006;2023-07-08T23:24:23;6.15;;;4.00;;
22223;SDS011;11281;52.194;21.006;2023-07-08T23:28:25;4.38;;;3.97;;
22223;SDS011;11281;52.194;21.006;2023-07-08T23:32:27;5.78;;;3.60;;
22223;SDS011;11281;52.194;21.006;2023-07-08T23:36:33;7.70;;;3.80;;
22223;SDS011;11281;52.194;21.006;2023-07-08T23:40:41;3.92;;;3.30;;
22223;SDS011;11281;52.194;21.006;2023-07-08T23:44:44;6.28;;;3.85;;
22223;SDS011;11281;52.194;21.006;2023-07-08T23:48:46;4.80;;;3.72;;
22223;SDS011;11281;52.194;21.006;2023-07-08T23:52:48;9.98;;;4.22;;
22223;SDS011;11281;52.194;21.006;2023-07-08T23:56:50;5.25;;;3.75;;
